createdAt,value
2023-01-28T00:01:38.693Z,-0.19
2023-01-28T00:06:41.008Z,-0.16
2023-01-28T00:11:43.833Z,-0.41
2023-01-28T00:16:46.668Z,-0.24
2023-01-28T00:21:48.883Z,-0.18
2023-01-28T00:26:51.746Z,-0.36
2023-01-28T00:31:54.003Z,-0.42
2023-01-28T00:36:58.818Z,-0.50
2023-01-28T00:42:00.827Z,-0.64
2023-01-28T00:47:02.913Z,-0.72
2023-01-28T00:52:05.327Z,-0.77
2023-01-28T00:57:08.257Z,-0.60
2023-01-28T01:02:13.450Z,-0.50
2023-01-28T01:07:15.778Z,-0.71
2023-01-28T01:12:18.188Z,-0.48
2023-01-28T01:17:22.180Z,-0.32
2023-01-28T01:22:24.580Z,-0.26
2023-01-28T01:27:26.957Z,-0.21
2023-01-28T01:32:35.249Z,-0.50
2023-01-28T01:37:37.982Z,-0.24
2023-01-28T01:42:40.360Z,-0.38
2023-01-28T01:47:55.957Z,-0.14
2023-01-28T01:53:03.387Z,-0.15
2023-01-28T01:58:11.600Z,-0.08
2023-01-28T02:03:17.625Z,-0.23
2023-01-28T02:08:22.728Z,-0.27
2023-01-28T02:13:31.990Z,-0.14
2023-01-28T02:18:36.153Z,-0.09
2023-01-28T02:23:55.334Z,-0.18
2023-01-28T02:29:33.944Z,-0.33
2023-01-28T02:34:50.549Z,-0.22
2023-01-28T02:39:58.590Z,-0.15
2023-01-28T02:45:01.007Z,-0.32
2023-01-28T02:50:10.177Z,-0.30
2023-01-28T02:55:26.001Z,-0.06
2023-01-28T03:00:44.902Z,-0.16
2023-01-28T03:06:05.483Z,-0.27
2023-01-28T03:11:26.108Z,-0.27
2023-01-28T03:16:49.792Z,-0.32
2023-01-28T03:22:11.466Z,-0.25
2023-01-28T03:27:44.452Z,-0.03
2023-01-28T03:33:07.002Z,-0.13
2023-01-28T03:38:21.288Z,-0.15
2023-01-28T03:43:24.528Z,-0.22
2023-01-28T03:48:28.340Z,-0.37
2023-01-28T03:53:31.526Z,-0.38
2023-01-28T03:58:52.131Z,-0.52
2023-01-28T04:03:54.562Z,-0.64
2023-01-28T04:09:01.331Z,-0.56
2023-01-28T04:14:03.595Z,-0.56
2023-01-28T04:19:23.827Z,-0.56
2023-01-28T04:24:26.943Z,-0.59
2023-01-28T04:29:29.478Z,-0.59
2023-01-28T04:34:36.705Z,-0.63
2023-01-28T04:40:02.496Z,-0.60
2023-01-28T04:45:37.118Z,-0.60
2023-01-28T04:50:57.988Z,-0.61
2023-01-28T04:56:20.067Z,-0.78
2023-01-28T05:01:22.558Z,-0.78
2023-01-28T05:06:24.981Z,-0.67
2023-01-28T05:11:30.944Z,-0.69
2023-01-28T05:16:37.055Z,-0.74
2023-01-28T05:21:39.711Z,-0.67
2023-01-28T05:26:49.494Z,-0.47
2023-01-28T05:31:52.297Z,-0.46
2023-01-28T05:36:55.156Z,-0.51
2023-01-28T05:42:15.944Z,-0.59
2023-01-28T05:47:22.006Z,-0.40
2023-01-28T05:52:28.099Z,-0.41
2023-01-28T05:57:31.803Z,-0.47
2023-01-28T06:02:34.353Z,-0.45
2023-01-28T06:07:36.795Z,-0.56
2023-01-28T06:12:40.093Z,-0.63
2023-01-28T06:18:14.781Z,-0.59
2023-01-28T06:23:17.624Z,-0.56
2023-01-28T06:28:19.865Z,-0.64
2023-01-28T06:33:24.762Z,-0.42
2023-01-28T06:38:27.031Z,-0.34
2023-01-28T06:43:30.936Z,-0.31
2023-01-28T06:48:33.191Z,-0.38
2023-01-28T06:53:35.578Z,-0.32
2023-01-28T06:58:37.946Z,-0.07
2023-01-28T07:03:40.072Z,0.07
2023-01-28T07:08:42.683Z,0.18
2023-01-28T07:13:45.258Z,0.35
2023-01-28T07:18:47.679Z,0.48
2023-01-28T07:23:50.011Z,0.42
2023-01-28T07:28:52.438Z,0.62
2023-01-28T07:33:54.577Z,0.76
2023-01-28T07:38:56.721Z,0.80
2023-01-28T07:43:59.243Z,1.04
2023-01-28T07:49:01.601Z,1.12
2023-01-28T07:54:03.766Z,1.25
2023-01-28T07:59:06.070Z,1.14
2023-01-28T08:04:08.379Z,1.01
2023-01-28T08:09:11.136Z,0.98
2023-01-28T08:14:13.558Z,0.94
2023-01-28T08:19:16.473Z,0.82
2023-01-28T08:24:18.673Z,0.92
2023-01-28T08:29:21.127Z,0.94
2023-01-28T08:34:23.444Z,0.88
2023-01-28T08:39:25.528Z,0.90
2023-01-28T08:44:27.675Z,1.31
2023-01-28T08:49:30.054Z,1.21
2023-01-28T08:54:33.696Z,1.27
2023-01-28T08:59:36.130Z,1.39
2023-01-28T09:04:38.289Z,1.72
2023-01-28T09:09:40.465Z,1.45
2023-01-28T09:14:42.737Z,1.76
2023-01-28T09:19:44.932Z,2.14
2023-01-28T09:24:47.127Z,2.47
2023-01-28T09:29:49.395Z,2.32
2023-01-28T09:34:51.781Z,2.60
2023-01-28T09:39:54.032Z,2.67
2023-01-28T09:45:09.822Z,2.95
2023-01-28T09:50:31.861Z,3.34
2023-01-28T09:55:41.872Z,3.30
2023-01-28T10:00:47.043Z,3.53
2023-01-28T10:06:07.929Z,3.88
2023-01-28T10:11:52.549Z,4.16
2023-01-28T10:17:07.611Z,4.28
2023-01-28T10:22:44.753Z,4.07
2023-01-28T10:27:49.621Z,3.88
2023-01-28T10:33:04.524Z,3.86
2023-01-28T10:38:09.811Z,4.15
2023-01-28T10:43:12.132Z,4.06
2023-01-28T10:48:23.340Z,4.53
2023-01-28T10:53:45.362Z,4.71
2023-01-28T10:59:19.856Z,4.42
2023-01-28T11:04:30.558Z,3.90
2023-01-28T11:09:36.203Z,3.90
2023-01-28T11:14:38.537Z,3.80
2023-01-28T11:19:40.788Z,3.74
2023-01-28T11:24:43.308Z,3.93
2023-01-28T11:29:45.902Z,4.00
2023-01-28T11:35:00.988Z,3.77
2023-01-28T11:40:20.144Z,3.21
2023-01-28T11:45:40.365Z,3.14
2023-01-28T11:50:58.736Z,3.17
2023-01-28T11:56:14.144Z,2.32
2023-01-28T12:01:31.877Z,2.60
2023-01-28T12:06:49.658Z,2.62
2023-01-28T12:12:35.491Z,2.64
2023-01-28T12:17:55.804Z,3.01
2023-01-28T12:23:06.859Z,3.24
2023-01-28T12:28:48.413Z,2.90
2023-01-28T12:34:20.112Z,2.62
2023-01-28T12:39:45.642Z,2.78
2023-01-28T12:44:53.099Z,2.72
2023-01-28T12:50:04.335Z,2.33
2023-01-28T12:55:26.763Z,2.56
2023-01-28T13:00:32.395Z,2.60
2023-01-28T13:05:40.570Z,2.28
2023-01-28T13:10:45.183Z,2.31
2023-01-28T13:15:50.871Z,2.39
2023-01-28T13:20:55.715Z,2.52
2023-01-28T13:26:11.991Z,2.48
2023-01-28T13:31:19.425Z,2.28
2023-01-28T13:36:31.278Z,1.97
2023-01-28T13:41:47.963Z,2.06
2023-01-28T13:46:50.219Z,1.97
2023-01-28T13:52:26.426Z,1.84
2023-01-28T13:57:49.768Z,1.71
2023-01-28T14:03:07.164Z,1.72
2023-01-28T14:08:47.826Z,1.83
2023-01-28T14:14:11.741Z,1.82
2023-01-28T14:19:14.682Z,1.71
2023-01-28T14:24:19.124Z,1.77
2023-01-28T14:29:43.172Z,1.66
2023-01-28T14:34:47.432Z,1.57
2023-01-28T14:39:57.717Z,1.54
2023-01-28T14:45:17.664Z,1.61
2023-01-28T14:50:46.585Z,1.61
2023-01-28T14:56:00.984Z,1.58
2023-01-28T15:01:03.384Z,1.43
2023-01-28T15:06:16.346Z,1.36
2023-01-28T15:11:23.792Z,1.29
2023-01-28T15:16:35.487Z,1.05
2023-01-28T15:21:39.048Z,1.07
2023-01-28T15:26:47.184Z,1.18
2023-01-28T15:31:50.025Z,1.32
2023-01-28T15:36:52.436Z,1.20
2023-01-28T15:42:05.231Z,1.41
2023-01-28T15:47:22.326Z,1.33
2023-01-28T15:52:39.852Z,1.33
2023-01-28T15:57:42.346Z,1.26
2023-01-28T16:02:53.357Z,1.45
2023-01-28T16:07:57.373Z,1.27
2023-01-28T16:13:22.177Z,1.19
2023-01-28T16:18:37.654Z,1.17
2023-01-28T16:23:40.798Z,1.24
2023-01-28T16:28:43.058Z,1.20
2023-01-28T16:33:45.521Z,1.18
2023-01-28T16:38:47.776Z,1.24
2023-01-28T16:43:50.240Z,1.05
2023-01-28T16:48:52.457Z,1.08
2023-01-28T16:53:55.260Z,1.17
2023-01-28T16:58:58.104Z,1.14
2023-01-28T17:04:00.364Z,1.07
2023-01-28T17:09:02.656Z,1.22
2023-01-28T17:14:04.930Z,1.17
2023-01-28T17:19:07.339Z,1.07
2023-01-28T17:24:09.770Z,0.85
2023-01-28T17:29:11.895Z,0.99
2023-01-28T17:34:14.227Z,1.09
2023-01-28T17:39:16.635Z,1.25
2023-01-28T17:44:20.149Z,1.01
2023-01-28T17:49:22.426Z,1.17
2023-01-28T17:54:26.036Z,1.06
2023-01-28T17:59:28.246Z,1.22
2023-01-28T18:04:30.398Z,1.10
2023-01-28T18:09:32.591Z,1.04
2023-01-28T18:14:35.494Z,1.10
2023-01-28T18:19:37.642Z,1.10
2023-01-28T18:24:39.949Z,1.15
2023-01-28T18:29:42.097Z,1.04
2023-01-28T18:34:47.408Z,1.21
2023-01-28T18:39:49.769Z,1.13
2023-01-28T18:44:52.106Z,1.13
2023-01-28T18:49:54.293Z,1.12
2023-01-28T18:54:57.896Z,0.92
2023-01-28T19:00:00.176Z,0.85
2023-01-28T19:05:02.566Z,0.81
2023-01-28T19:10:05.934Z,0.96
2023-01-28T19:15:08.857Z,1.01
2023-01-28T19:20:11.942Z,0.83
2023-01-28T19:25:14.997Z,0.54
2023-01-28T19:30:17.651Z,0.68
2023-01-28T19:35:20.714Z,0.70
2023-01-28T19:40:24.669Z,0.53
2023-01-28T19:45:26.833Z,0.63
2023-01-28T19:50:28.974Z,0.75
2023-01-28T19:55:31.266Z,0.83
2023-01-28T20:00:35.224Z,0.95
2023-01-28T20:05:37.798Z,0.86
2023-01-28T20:10:39.915Z,0.81
2023-01-28T20:15:42.204Z,0.86
2023-01-28T20:20:55.373Z,0.87
2023-01-28T20:26:03.851Z,0.79
2023-01-28T20:31:09.016Z,0.69
2023-01-28T20:36:14.100Z,0.63
2023-01-28T20:41:20.419Z,0.79
2023-01-28T20:46:26.579Z,0.90
2023-01-28T20:51:30.987Z,1.02
2023-01-28T20:56:33.723Z,0.96
2023-01-28T21:01:37.259Z,1.09
2023-01-28T21:06:42.706Z,1.09
2023-01-28T21:11:45.045Z,1.02
2023-01-28T21:16:47.483Z,1.06
2023-01-28T21:21:49.723Z,0.80
2023-01-28T21:26:51.845Z,1.08
2023-01-28T21:31:54.012Z,0.94
2023-01-28T21:36:56.669Z,0.71
2023-01-28T21:41:58.821Z,0.76
2023-01-28T21:47:00.975Z,0.67
2023-01-28T21:52:03.266Z,0.73
2023-01-28T21:57:05.633Z,0.60
2023-01-28T22:02:12.160Z,0.54
2023-01-28T22:07:17.636Z,0.76
2023-01-28T22:12:21.911Z,0.71
2023-01-28T22:17:24.166Z,0.91
2023-01-28T22:22:26.392Z,0.61
2023-01-28T22:27:29.014Z,0.51
2023-01-28T22:32:31.265Z,0.50
2023-01-28T22:37:33.410Z,0.75
2023-01-28T22:42:35.512Z,0.81
2023-01-28T22:47:37.865Z,0.90
2023-01-28T22:52:40.144Z,0.75
2023-01-28T22:57:42.226Z,0.51
2023-01-28T23:02:44.408Z,0.37
2023-01-28T23:07:46.816Z,0.52
2023-01-28T23:13:04.907Z,0.51
2023-01-28T23:18:50.203Z,0.63
2023-01-28T23:24:10.842Z,0.30
2023-01-28T23:29:13.104Z,0.28
2023-01-28T23:34:17.602Z,0.42
2023-01-28T23:39:19.942Z,0.34
2023-01-28T23:44:28.641Z,0.33
2023-01-28T23:49:30.885Z,0.21
2023-01-28T23:54:33.493Z,0.09
2023-01-28T23:59:35.618Z,0.27
